Time;durP1;ratioP1;P1;durP2;ratioP2;P2;SDS_P1;SDS_P2;PMS_P1;PMS_P2;Temp;Humidity;BMP_temperature;BMP_pressure;BME280_temperature;BME280_humidity;BME280_pressure;Samples;Min_cycle;Max_cycle;Signal;HPM_P1;HPM_P2
2022/04/01 00:02:19;;;;;;;7.32;3.95;;;;;;;;;;5013884;28;20367;-84
2022/04/01 00:04:45;;;;;;;4.65;3.83;;;;;;;;;;5014046;28;20463;-83
2022/04/01 00:07:10;;;;;;;7.90;4.00;;;;;;;;;;5015256;28;20034;-84
2022/04/01 00:09:37;;;;;;;6.05;3.72;;;;;;;;;;5015113;28;20049;-84
2022/04/01 00:12:02;;;;;;;6.23;3.93;;;;;;;;;;5013720;28;20383;-83
2022/04/01 00:14:28;;;;;;;7.20;4.43;;;;;;;;;;5013732;28;20021;-84
2022/04/01 00:16:53;;;;;;;7.32;4.03;;;;;;;;;;5014008;28;20033;-84
2022/04/01 00:19:20;;;;;;;9.13;4.20;;;;;;;;;;5030175;28;20379;-84
2022/04/01 00:21:45;;;;;;;7.07;4.35;;;;;;;;;;5014910;28;20113;-84
2022/04/01 00:24:10;;;;;;;6.97;4.43;;;;;;;;;;5013311;28;20049;-84
2022/04/01 00:26:35;;;;;;;6.05;3.97;;;;;;;;;;5014735;28;20025;-84
2022/04/01 00:29:01;;;;;;;9.60;4.57;;;;;;;;;;5013711;28;20022;-83
2022/04/01 00:31:26;;;;;;;9.52;4.43;;;;;;;;;;5029705;28;20467;-85
2022/04/01 00:34:15;;;;;;;9.63;4.03;;;;;;;;;;5029805;28;20022;-83
2022/04/01 00:36:36;;;;;;;9.07;3.90;;;;;;;;;;5014559;28;20040;-84
2022/04/01 00:39:01;;;;;;;6.65;4.18;;;;;;;;;;5029718;28;20026;-84
2022/04/01 00:41:27;;;;;;;6.85;4.50;;;;;;;;;;5013636;28;20493;-84
2022/04/01 00:44:13;;;;;;;9.35;4.20;;;;;;;;;;5029842;28;20076;-83
2022/04/01 00:46:39;;;;;;;7.75;4.40;;;;;;;;;;5013100;28;20037;-84
2022/04/01 00:49:04;;;;;;;10.23;4.60;;;;;;;;;;5013853;28;20471;-84
2022/04/01 00:51:29;;;;;;;9.63;4.53;;;;;;;;;;5029665;28;20122;-85
2022/04/01 00:53:55;;;;;;;7.38;4.35;;;;;;;;;;5013518;28;20022;-84
2022/04/01 00:56:22;;;;;;;8.55;4.28;;;;;;;;;;5014033;28;20022;-84
2022/04/01 00:58:47;;;;;;;7.93;4.47;;;;;;;;;;5013068;28;20020;-84
2022/04/01 01:01:12;;;;;;;13.88;5.00;;;;;;;;;;5014530;28;20426;-83
2022/04/01 01:03:37;;;;;;;8.25;4.55;;;;;;;;;;5029589;28;20049;-85
2022/04/01 01:06:03;;;;;;;6.25;4.28;;;;;;;;;;5014146;28;20562;-85
2022/04/01 01:08:28;;;;;;;11.18;5.55;;;;;;;;;;5029347;28;20045;-84
2022/04/01 01:10:55;;;;;;;10.65;5.25;;;;;;;;;;5013942;28;20022;-83
2022/04/01 01:13:20;;;;;;;10.38;5.03;;;;;;;;;;5012795;28;20108;-85
2022/04/01 01:15:46;;;;;;;11.65;5.13;;;;;;;;;;5012360;28;20116;-84
2022/04/01 01:18:14;;;;;;;7.55;4.85;;;;;;;;;;5011928;28;20061;-84
2022/04/01 01:20:39;;;;;;;8.80;4.70;;;;;;;;;;5028529;28;20010;-84
2022/04/01 01:23:06;;;;;;;8.85;4.93;;;;;;;;;;5013637;28;20501;-83
2022/04/01 01:25:31;;;;;;;9.75;5.35;;;;;;;;;;5013973;28;20521;-85
2022/04/01 01:27:57;;;;;;;9.77;5.38;;;;;;;;;;5013588;28;20116;-84
2022/04/01 01:30:24;;;;;;;9.75;5.78;;;;;;;;;;5012310;28;20022;-82
2022/04/01 01:32:49;;;;;;;11.55;6.22;;;;;;;;;;5028573;28;20385;-83
2022/04/01 01:35:16;;;;;;;10.80;5.97;;;;;;;;;;5012036;28;20022;-84
2022/04/01 01:37:41;;;;;;;10.88;6.15;;;;;;;;;;5013852;28;20033;-83
2022/04/01 01:40:08;;;;;;;13.10;6.28;;;;;;;;;;5011690;28;20521;-83
2022/04/01 01:42:33;;;;;;;10.10;6.28;;;;;;;;;;5011984;28;20125;-84
2022/04/01 01:44:59;;;;;;;11.32;6.03;;;;;;;;;;5028202;28;20459;-84
2022/04/01 01:47:24;;;;;;;12.73;6.07;;;;;;;;;;5011407;28;20478;-83
2022/04/01 01:55:17;;;;;;;14.40;7.47;;;;;;;;;;5012996;28;20419;-83
2022/04/01 01:57:42;;;;;;;15.50;8.00;;;;;;;;;;5012899;28;20018;-85
2022/04/01 02:00:16;;;;;;;16.50;8.45;;;;;;;;;;5027892;28;20025;-83
2022/04/01 02:02:42;;;;;;;13.23;6.72;;;;;;;;;;5011561;28;20026;-83
2022/04/01 02:05:07;;;;;;;13.65;6.72;;;;;;;;;;5011652;28;20300;-84
2022/04/01 02:07:33;;;;;;;16.33;7.70;;;;;;;;;;5028514;28;20030;-83
2022/04/01 02:09:58;;;;;;;15.40;7.45;;;;;;;;;;5011618;28;20014;-84
2022/04/01 02:12:23;;;;;;;11.57;6.93;;;;;;;;;;5013337;28;20027;-84
2022/04/01 02:14:48;;;;;;;11.18;6.53;;;;;;;;;;5011695;28;20024;-84
2022/04/01 02:17:14;;;;;;;14.45;6.82;;;;;;;;;;5012770;28;20037;-84
2022/04/01 02:19:39;;;;;;;13.33;6.80;;;;;;;;;;5011576;28;20022;-85
2022/04/01 02:22:05;;;;;;;13.05;7.00;;;;;;;;;;5027910;28;20141;-84
2022/04/01 02:24:31;;;;;;;11.57;7.30;;;;;;;;;;5012693;28;20540;-84
2022/04/01 02:26:56;;;;;;;15.20;7.75;;;;;;;;;;5011215;28;20494;-83
2022/04/01 02:29:22;;;;;;;12.15;6.95;;;;;;;;;;5027812;28;20030;-84
2022/04/01 02:31:51;;;;;;;14.02;7.70;;;;;;;;;;5011367;28;20032;-83
2022/04/01 02:34:20;;;;;;;13.43;7.25;;;;;;;;;;5011333;28;20025;-84
2022/04/01 02:36:45;;;;;;;10.63;6.72;;;;;;;;;;5011112;28;20030;-84
2022/04/01 02:39:10;;;;;;;17.60;6.75;;;;;;;;;;5011057;28;20113;-83
2022/04/01 02:41:36;;;;;;;14.40;7.60;;;;;;;;;;5011102;28;20049;-85
2022/04/01 02:44:12;;;;;;;11.20;6.38;;;;;;;;;;5027688;28;20489;-83
2022/04/01 02:46:46;;;;;;;14.23;6.97;;;;;;;;;;5011336;28;20410;-84
2022/04/01 02:49:13;;;;;;;9.90;6.38;;;;;;;;;;5027740;28;20014;-85
2022/04/01 02:51:39;;;;;;;14.07;6.53;;;;;;;;;;5012673;28;20097;-84
2022/04/01 02:54:06;;;;;;;12.60;6.88;;;;;;;;;;5012380;28;20018;-84
2022/04/01 02:56:32;;;;;;;13.00;7.20;;;;;;;;;;5010763;28;20471;-83
2022/04/01 02:58:58;;;;;;;12.30;7.05;;;;;;;;;;5027414;28;20033;-84
2022/04/01 03:01:23;;;;;;;12.77;7.00;;;;;;;;;;5010612;28;20374;-84
2022/04/01 03:03:48;;;;;;;13.25;7.05;;;;;;;;;;5010742;28;20026;-85
2022/04/01 03:06:13;;;;;;;13.15;7.18;;;;;;;;;;5010869;28;20029;-84
2022/04/01 03:08:40;;;;;;;11.98;7.07;;;;;;;;;;5011209;28;20026;-84
2022/04/01 03:11:06;;;;;;;15.85;7.93;;;;;;;;;;5011670;28;20391;-84
2022/04/01 03:13:31;;;;;;;13.98;7.35;;;;;;;;;;5011043;28;20041;-83
2022/04/01 03:15:56;;;;;;;14.85;7.30;;;;;;;;;;5012197;28;20567;-84
2022/04/01 03:18:21;;;;;;;13.82;7.57;;;;;;;;;;5016233;28;20512;-84
2022/04/01 03:20:47;;;;;;;19.58;9.43;;;;;;;;;;5030966;28;20014;-84
2022/04/01 03:23:12;;;;;;;16.02;8.13;;;;;;;;;;5031024;28;20036;-84
2022/04/01 03:25:37;;;;;;;13.05;7.15;;;;;;;;;;5014538;28;20025;-84
2022/04/01 03:28:03;;;;;;;16.48;8.63;;;;;;;;;;5015641;28;20030;-84
2022/04/01 03:30:28;;;;;;;15.95;7.70;;;;;;;;;;5014496;28;20018;-84
2022/04/01 03:32:54;;;;;;;13.73;7.78;;;;;;;;;;5014440;28;20053;-84
2022/04/01 03:35:20;;;;;;;13.82;8.07;;;;;;;;;;5014377;28;20026;-84
2022/04/01 03:37:45;;;;;;;19.60;10.50;;;;;;;;;;5014504;28;20479;-84
2022/04/01 03:40:14;;;;;;;17.02;10.07;;;;;;;;;;5014553;28;20014;-85
2022/04/01 03:42:39;;;;;;;16.65;8.77;;;;;;;;;;5014679;28;20050;-84
2022/04/01 03:45:06;;;;;;;15.60;8.40;;;;;;;;;;5014487;28;20049;-84
2022/04/01 03:47:37;;;;;;;14.40;8.65;;;;;;;;;;5014479;28;20026;-84
2022/04/01 03:50:02;;;;;;;;;;;;;;;;;;5014315;28;20049;-83
2022/04/01 03:52:30;;;;;;;13.73;8.20;;;;;;;;;;5014185;28;19964;-84
2022/04/01 03:54:56;;;;;;;15.60;8.70;;;;;;;;;;5030223;28;20256;-85
2022/04/01 03:57:25;;;;;;;17.50;9.38;;;;;;;;;;5014125;28;20021;-83
2022/04/01 03:59:59;;;;;;;16.27;9.60;;;;;;;;;;5015230;28;20824;-83
2022/04/01 04:02:25;;;;;;;16.95;9.02;;;;;;;;;;5013649;28;20029;-84
2022/04/01 04:04:53;;;;;;;20.67;9.75;;;;;;;;;;5013937;28;20021;-84
2022/04/01 04:07:19;;;;;;;19.20;9.30;;;;;;;;;;5015342;28;20467;-84
2022/04/01 04:09:44;;;;;;;21.30;11.10;;;;;;;;;;5014014;28;20017;-83
2022/04/01 04:12:13;;;;;;;21.63;12.00;;;;;;;;;;5013575;28;20022;-83
2022/04/01 04:14:42;;;;;;;21.20;11.47;;;;;;;;;;5013602;28;20053;-83
2022/04/01 04:17:11;;;;;;;22.67;12.63;;;;;;;;;;5012146;28;20029;-84
2022/04/01 04:19:41;;;;;;;23.45;12.45;;;;;;;;;;5013245;28;20048;-84
2022/04/01 04:22:11;;;;;;;23.37;12.53;;;;;;;;;;5030124;28;20014;-84
2022/04/01 04:24:41;;;;;;;24.57;12.87;;;;;;;;;;5013803;28;20026;-84
2022/04/01 04:27:11;;;;;;;25.27;13.60;;;;;;;;;;5013447;28;20030;-84
2022/04/01 04:29:41;;;;;;;23.47;13.03;;;;;;;;;;5013387;28;20029;-84
2022/04/01 04:32:08;;;;;;;25.75;13.65;;;;;;;;;;5013882;28;20029;-84
2022/04/01 04:34:38;;;;;;;23.67;12.20;;;;;;;;;;5013448;28;20022;-84
2022/04/01 04:37:08;;;;;;;25.60;13.93;;;;;;;;;;5013567;28;20037;-84
2022/04/01 04:39:34;;;;;;;25.73;13.35;;;;;;;;;;5013133;28;20017;-83
2022/04/01 04:42:03;;;;;;;25.17;14.73;;;;;;;;;;5014887;28;20040;-84
2022/04/01 04:44:30;;;;;;;26.43;14.67;;;;;;;;;;5013260;28;20018;-84
2022/04/01 04:46:55;;;;;;;28.53;14.10;;;;;;;;;;5012652;28;20080;-85
2022/04/01 04:49:21;;;;;;;27.43;14.10;;;;;;;;;;5014034;28;20022;-84
2022/04/01 04:51:48;;;;;;;27.40;15.20;;;;;;;;;;5013273;28;20014;-84
2022/04/01 04:54:13;;;;;;;26.27;14.90;;;;;;;;;;5013137;28;20481;-85
2022/04/01 04:56:39;;;;;;;26.67;14.43;;;;;;;;;;5013073;28;20021;-85
2022/04/01 04:59:05;;;;;;;27.70;14.87;;;;;;;;;;5013072;28;20022;-84
2022/04/01 05:01:34;;;;;;;28.43;14.17;;;;;;;;;;5014282;28;20065;-84
2022/04/01 05:04:11;;;;;;;29.20;14.90;;;;;;;;;;5029506;28;20026;-84
2022/04/01 05:06:57;;;;;;;26.43;14.47;;;;;;;;;;5029514;28;20121;-84
2022/04/01 05:09:31;;;;;;;28.10;14.70;;;;;;;;;;5013728;28;20431;-84
2022/04/01 05:11:59;;;;;;;25.93;13.40;;;;;;;;;;5014268;28;20076;-84
2022/04/01 05:14:42;;;;;;;25.03;13.03;;;;;;;;;;5029295;28;20024;-84
2022/04/01 05:17:14;;;;;;;26.00;13.60;;;;;;;;;;5014305;28;20054;-84
2022/04/01 05:19:40;;;;;;;24.83;13.23;;;;;;;;;;5014005;28;20018;-84
2022/04/01 05:22:09;;;;;;;22.90;12.90;;;;;;;;;;5013881;28;20029;-84
2022/04/01 05:24:34;;;;;;;23.43;11.73;;;;;;;;;;5008641;28;20037;-84
2022/04/01 05:27:02;;;;;;;23.70;12.07;;;;;;;;;;5028689;28;20537;-84
2022/04/01 05:29:31;;;;;;;22.47;12.50;;;;;;;;;;5013598;28;20024;-84
2022/04/01 05:32:05;;;;;;;22.43;11.40;;;;;;;;;;5013570;28;20060;-84
2022/04/01 05:34:44;;;;;;;19.97;10.37;;;;;;;;;;5012129;28;20110;-84
2022/04/01 05:37:11;;;;;;;18.97;9.63;;;;;;;;;;5013766;28;20120;-84
2022/04/01 05:39:37;;;;;;;21.63;10.70;;;;;;;;;;5013276;28;20017;-84
2022/04/01 05:42:04;;;;;;;19.00;9.70;;;;;;;;;;5012414;28;20120;-83
2022/04/01 05:44:31;;;;;;;20.50;10.77;;;;;;;;;;5013484;28;20013;-84
2022/04/01 05:46:58;;;;;;;20.53;10.40;;;;;;;;;;5012955;28;20506;-84
2022/04/01 05:49:24;;;;;;;17.63;9.20;;;;;;;;;;5012131;28;20030;-84
2022/04/01 05:51:49;;;;;;;18.53;8.53;;;;;;;;;;5010926;28;20014;-83
2022/04/01 05:54:15;;;;;;;14.93;7.93;;;;;;;;;;5007526;28;20362;-84
2022/04/01 05:56:41;;;;;;;14.57;8.53;;;;;;;;;;5019823;28;20071;-84
2022/04/01 05:59:06;;;;;;;16.10;8.40;;;;;;;;;;5011291;28;20041;-83
2022/04/01 06:01:42;;;;;;;14.37;8.17;;;;;;;;;;5028105;28;20053;-84
2022/04/01 06:04:13;;;;;;;11.27;6.10;;;;;;;;;;5026260;28;20022;-84
2022/04/01 06:06:38;;;;;;;12.17;6.53;;;;;;;;;;4994913;28;20062;-84
2022/04/01 06:09:14;;;;;;;14.27;6.97;;;;;;;;;;5011038;28;20137;-84
2022/04/01 06:11:42;;;;;;;13.30;7.90;;;;;;;;;;5004094;28;20053;-84
2022/04/01 06:14:07;;;;;;;15.20;7.00;;;;;;;;;;4991524;28;20166;-84
2022/04/01 06:16:42;;;;;;;12.13;6.57;;;;;;;;;;4993062;28;20457;-83
2022/04/01 06:19:21;;;;;;;12.10;6.43;;;;;;;;;;4992380;28;20027;-84
2022/04/01 06:21:48;;;;;;;11.33;6.30;;;;;;;;;;4992441;28;20069;-84
2022/04/01 06:24:28;;;;;;;10.13;6.20;;;;;;;;;;4994163;28;20050;-84
2022/04/01 06:27:01;;;;;;;9.27;5.63;;;;;;;;;;5004228;28;20030;-84
2022/04/01 06:29:33;;;;;;;10.17;5.50;;;;;;;;;;5010168;28;20034;-84
2022/04/01 06:32:05;;;;;;;9.67;5.40;;;;;;;;;;5010848;28;20032;-84
2022/04/01 06:34:36;;;;;;;13.93;7.43;;;;;;;;;;5005578;28;20514;-84
2022/04/01 06:37:03;;;;;;;12.33;6.27;;;;;;;;;;4992851;28;20125;-84
2022/04/01 06:39:36;;;;;;;12.23;6.53;;;;;;;;;;4991121;28;20058;-84
2022/04/01 06:42:02;;;;;;;20.40;10.03;;;;;;;;;;4992753;28;20026;-83
2022/04/01 06:44:27;;;;;;;16.20;7.17;;;;;;;;;;4997992;28;20422;-84
2022/04/01 06:46:53;;;;;;;12.83;6.70;;;;;;;;;;5010697;28;20037;-83
2022/04/01 06:49:19;;;;;;;13.23;7.07;;;;;;;;;;5010775;28;20018;-84
2022/04/01 06:51:44;;;;;;;13.50;7.00;;;;;;;;;;5013007;28;20029;-83
2022/04/01 06:54:10;;;;;;;12.63;6.50;;;;;;;;;;5015249;28;20462;-84
2022/04/01 06:56:35;;;;;;;13.00;6.73;;;;;;;;;;5030718;28;20101;-83
2022/04/01 06:59:00;;;;;;;15.07;8.20;;;;;;;;;;5015786;28;20462;-84
2022/04/01 07:01:26;;;;;;;12.27;6.63;;;;;;;;;;5016236;28;20033;-83
2022/04/01 07:03:52;;;;;;;15.07;8.03;;;;;;;;;;5014567;28;20036;-84
2022/04/01 07:06:17;;;;;;;15.60;7.80;;;;;;;;;;5031256;28;20436;-84
2022/04/01 07:08:43;;;;;;;13.67;7.67;;;;;;;;;;5030456;28;20124;-84
2022/04/01 07:11:08;;;;;;;14.87;7.83;;;;;;;;;;5015564;28;20103;-84
2022/04/01 07:13:33;;;;;;;15.40;8.10;;;;;;;;;;5030834;28;20022;-84
2022/04/01 07:15:59;;;;;;;14.73;7.37;;;;;;;;;;5015117;28;20025;-84
2022/04/01 07:18:24;;;;;;;13.63;7.83;;;;;;;;;;5022598;28;20041;-84
2022/04/01 07:20:50;;;;;;;15.30;7.57;;;;;;;;;;4996026;28;20411;-84
2022/04/01 07:23:16;;;;;;;14.43;7.53;;;;;;;;;;4994679;28;20077;-84
2022/04/01 07:25:41;;;;;;;14.57;7.50;;;;;;;;;;5011610;28;20014;-84
2022/04/01 07:28:07;;;;;;;13.97;7.63;;;;;;;;;;5015060;28;20088;-83
2022/04/01 07:30:32;;;;;;;13.13;6.97;;;;;;;;;;5014396;28;20386;-84
2022/04/01 07:32:58;;;;;;;14.83;7.87;;;;;;;;;;5015338;28;20022;-84
2022/04/01 07:35:24;;;;;;;13.77;7.03;;;;;;;;;;5029662;28;20025;-83
2022/04/01 07:37:49;;;;;;;15.10;7.20;;;;;;;;;;5014989;28;20026;-84
2022/04/01 07:40:15;;;;;;;14.07;7.83;;;;;;;;;;5013813;28;20454;-84
2022/04/01 07:42:40;;;;;;;12.60;7.23;;;;;;;;;;5015190;28;20105;-84
2022/04/01 07:45:06;;;;;;;11.83;6.63;;;;;;;;;;5015440;28;20028;-84
2022/04/01 07:47:32;;;;;;;12.13;6.57;;;;;;;;;;5029842;28;20034;-84
2022/04/01 07:49:57;;;;;;;10.43;5.80;;;;;;;;;;5013489;28;20018;-83
2022/04/01 07:52:22;;;;;;;10.37;5.43;;;;;;;;;;5015017;28;20040;-84
2022/04/01 07:54:48;;;;;;;10.30;6.43;;;;;;;;;;5014915;28;20361;-84
2022/04/01 07:57:14;;;;;;;12.13;6.23;;;;;;;;;;5014722;28;20165;-84
2022/04/01 07:59:39;;;;;;;12.33;6.30;;;;;;;;;;5013167;28;20445;-84
2022/04/01 08:02:05;;;;;;;12.60;6.30;;;;;;;;;;5012921;28;20026;-83
2022/04/01 08:04:30;;;;;;;7.93;5.03;;;;;;;;;;5012959;28;20022;-84
2022/04/01 08:06:56;;;;;;;10.37;5.60;;;;;;;;;;5029632;28;20113;-83
2022/04/01 08:09:22;;;;;;;9.30;5.10;;;;;;;;;;5012852;28;20025;-84
2022/04/01 08:11:47;;;;;;;9.63;5.13;;;;;;;;;;5012997;28;20018;-84
2022/04/01 08:14:12;;;;;;;8.50;5.00;;;;;;;;;;5013571;28;20014;-84
2022/04/01 08:16:37;;;;;;;7.37;4.10;;;;;;;;;;5012015;28;20481;-84
2022/04/01 08:19:03;;;;;;;8.90;5.30;;;;;;;;;;5011141;28;20059;-84
2022/04/01 08:21:30;;;;;;;8.67;4.60;;;;;;;;;;5014435;28;20018;-84
2022/04/01 08:23:56;;;;;;;8.97;4.50;;;;;;;;;;5014317;28;21127;-85
2022/04/01 08:26:21;;;;;;;9.23;5.07;;;;;;;;;;5014415;28;20034;-83
2022/04/01 08:28:46;;;;;;;8.87;5.23;;;;;;;;;;5013171;28;20030;-84
2022/04/01 08:31:11;;;;;;;10.60;5.60;;;;;;;;;;5013395;28;20044;-84
2022/04/01 08:33:37;;;;;;;9.97;5.40;;;;;;;;;;5012801;28;20030;-85
2022/04/01 08:36:03;;;;;;;7.63;4.77;;;;;;;;;;5012702;28;20478;-84
2022/04/01 08:38:28;;;;;;;9.10;4.70;;;;;;;;;;5013363;28;20048;-84
2022/04/01 08:40:54;;;;;;;10.27;5.00;;;;;;;;;;5012823;28;20316;-84
2022/04/01 08:43:24;;;;;;;10.87;5.53;;;;;;;;;;5014533;28;20473;-84
2022/04/01 08:45:49;;;;;;;11.87;5.73;;;;;;;;;;5012783;28;20049;-84
2022/04/01 08:48:14;;;;;;;11.53;5.97;;;;;;;;;;5012630;28;20502;-83
2022/04/01 08:50:42;;;;;;;9.50;5.53;;;;;;;;;;5012306;28;20026;-84
2022/04/01 08:53:08;;;;;;;10.83;5.23;;;;;;;;;;5014369;28;20512;-83
2022/04/01 08:55:33;;;;;;;12.73;5.97;;;;;;;;;;5012789;28;20018;-81
2022/04/01 08:57:58;;;;;;;10.63;5.83;;;;;;;;;;5012134;28;20026;-84
2022/04/01 09:00:23;;;;;;;10.27;5.70;;;;;;;;;;5011935;28;20024;-84
2022/04/01 09:02:57;;;;;;;12.70;6.57;;;;;;;;;;5012589;28;20525;-83
2022/04/01 09:05:22;;;;;;;12.07;5.90;;;;;;;;;;5014033;28;20080;-83
2022/04/01 09:07:47;;;;;;;11.27;5.77;;;;;;;;;;5011485;28;20042;-83
2022/04/01 09:10:13;;;;;;;11.47;5.50;;;;;;;;;;5012812;28;20060;-83
2022/04/01 09:12:48;;;;;;;10.53;5.43;;;;;;;;;;5012811;28;20045;-83
2022/04/01 09:15:13;;;;;;;10.63;6.00;;;;;;;;;;5011718;28;20462;-84
2022/04/01 09:17:40;;;;;;;10.40;5.77;;;;;;;;;;5013415;28;20032;-83
2022/04/01 09:20:09;;;;;;;11.37;5.80;;;;;;;;;;5009303;28;20040;-83
2022/04/01 09:22:35;;;;;;;11.97;5.97;;;;;;;;;;5008385;28;20026;-82
2022/04/01 09:25:02;;;;;;;12.13;6.33;;;;;;;;;;4992176;28;20340;-82
2022/04/01 09:27:46;;;;;;;11.50;6.20;;;;;;;;;;4991417;28;20038;-83
2022/04/01 09:30:21;;;;;;;9.70;4.90;;;;;;;;;;4991658;28;20019;-83
2022/04/01 09:32:48;;;;;;;10.83;5.33;;;;;;;;;;4991838;28;20348;-82
2022/04/01 09:35:14;;;;;;;11.03;5.77;;;;;;;;;;5004657;28;20030;-82
2022/04/01 09:37:42;;;;;;;12.30;5.87;;;;;;;;;;5007466;28;20121;-82
2022/04/01 09:40:07;;;;;;;11.43;5.63;;;;;;;;;;4992176;28;20026;-82
2022/04/01 09:42:33;;;;;;;12.17;5.67;;;;;;;;;;4996552;28;20033;-85
2022/04/01 09:44:59;;;;;;;14.83;7.07;;;;;;;;;;4999257;28;20121;-82
2022/04/01 09:47:24;;;;;;;15.07;6.23;;;;;;;;;;4992992;28;20479;-81
2022/04/01 09:49:52;;;;;;;20.03;6.77;;;;;;;;;;4992798;28;20050;-82
2022/04/01 09:52:20;;;;;;;13.93;6.23;;;;;;;;;;4993004;28;20030;-81
2022/04/01 09:54:50;;;;;;;16.77;8.53;;;;;;;;;;4992656;28;20180;-81
2022/04/01 09:57:16;;;;;;;19.23;6.97;;;;;;;;;;4991802;28;20026;-82
2022/04/01 09:59:42;;;;;;;19.20;8.07;;;;;;;;;;5007102;28;20029;-81
2022/04/01 10:02:08;;;;;;;18.40;8.10;;;;;;;;;;4991679;28;20049;-83
2022/04/01 10:04:33;;;;;;;16.83;8.30;;;;;;;;;;4992119;28;20125;-81
2022/04/01 10:06:59;;;;;;;15.83;7.77;;;;;;;;;;5011932;28;20065;-82
2022/04/01 10:09:25;;;;;;;20.27;10.30;;;;;;;;;;4999744;28;20505;-81
2022/04/01 10:11:51;;;;;;;17.70;7.53;;;;;;;;;;5003995;28;20049;-82
2022/04/01 10:14:18;;;;;;;18.37;9.10;;;;;;;;;;5012114;28;20014;-83
2022/04/01 10:16:44;;;;;;;18.43;8.47;;;;;;;;;;5011719;28;20427;-81
2022/04/01 10:19:14;;;;;;;19.67;9.13;;;;;;;;;;5011214;28;20025;-83
2022/04/01 10:21:43;;;;;;;23.67;11.40;;;;;;;;;;5005561;28;20026;-82
2022/04/01 10:24:14;;;;;;;20.43;10.43;;;;;;;;;;4991801;28;20050;-82
2022/04/01 10:27:03;;;;;;;18.90;9.60;;;;;;;;;;4992176;28;20109;-82
2022/04/01 10:29:28;;;;;;;17.93;8.23;;;;;;;;;;4983067;28;20026;-82
2022/04/01 10:31:54;;;;;;;15.83;7.20;;;;;;;;;;5006895;28;20025;-82
2022/04/01 10:34:22;;;;;;;13.73;7.47;;;;;;;;;;4991486;28;20033;-82
2022/04/01 10:37:01;;;;;;;19.53;8.97;;;;;;;;;;4990718;28;20026;-81
2022/04/01 10:39:26;;;;;;;18.80;8.97;;;;;;;;;;4991564;28;20022;-81
2022/04/01 10:42:05;;;;;;;19.70;9.87;;;;;;;;;;4990436;28;20478;-82
2022/04/01 10:44:47;;;;;;;18.57;9.47;;;;;;;;;;4992703;28;20054;-82
2022/04/01 10:47:12;;;;;;;13.83;7.57;;;;;;;;;;4992325;28;20117;-82
2022/04/01 10:52:24;;;;;;;14.73;6.70;;;;;;;;;;4995536;28;20537;-81
2022/04/01 10:54:50;;;;;;;16.80;7.60;;;;;;;;;;5014342;28;20014;-81
2022/04/01 10:57:29;;;;;;;16.80;8.30;;;;;;;;;;5003580;28;20468;-80
2022/04/01 10:59:58;;;;;;;15.43;7.77;;;;;;;;;;4990347;28;20022;-82
2022/04/01 11:02:23;;;;;;;13.93;6.70;;;;;;;;;;5001257;28;20025;-83
2022/04/01 11:04:51;;;;;;;15.07;7.23;;;;;;;;;;5029274;28;20022;-82
2022/04/01 11:07:23;;;;;;;16.07;6.87;;;;;;;;;;5031612;28;20026;-82
2022/04/01 11:09:51;;;;;;;13.60;6.73;;;;;;;;;;5031445;28;20075;-83
2022/04/01 11:14:53;;;;;;;14.07;6.90;;;;;;;;;;4991934;28;20026;-83
2022/04/01 11:17:34;;;;;;;15.33;6.40;;;;;;;;;;4990257;28;20391;-82
2022/04/01 11:20:00;;;;;;;11.45;6.38;;;;;;;;;;4994578;28;20018;-83
2022/04/01 11:22:34;;;;;;;13.67;6.07;;;;;;;;;;5010030;28;20022;-83
2022/04/01 11:25:00;;;;;;;12.70;6.53;;;;;;;;;;4998267;28;20505;-83
2022/04/01 11:27:25;;;;;;;16.73;8.20;;;;;;;;;;4991910;28;20516;-83
2022/04/01 11:30:03;;;;;;;14.97;8.07;;;;;;;;;;4992280;28;20014;-83
2022/04/01 11:32:28;;;;;;;15.97;8.00;;;;;;;;;;4992068;28;20057;-83
2022/04/01 11:34:55;;;;;;;15.47;7.80;;;;;;;;;;4990430;28;20066;-83
2022/04/01 11:37:20;;;;;;;11.63;7.17;;;;;;;;;;4993184;28;20034;-83
2022/04/01 11:39:45;;;;;;;15.93;7.90;;;;;;;;;;4993930;28;20018;-83
2022/04/01 11:42:11;;;;;;;18.50;8.17;;;;;;;;;;4994100;28;20022;-84
2022/04/01 11:44:36;;;;;;;16.73;8.00;;;;;;;;;;5009584;28;20463;-84
2022/04/01 11:47:01;;;;;;;13.50;6.73;;;;;;;;;;5009947;28;20030;-83
2022/04/01 11:49:27;;;;;;;17.53;7.53;;;;;;;;;;5009960;28;20018;-83
2022/04/01 11:51:52;;;;;;;17.33;7.57;;;;;;;;;;4995053;28;20149;-83
2022/04/01 11:54:19;;;;;;;15.23;6.77;;;;;;;;;;4995898;28;20463;-83
2022/04/01 11:56:45;;;;;;;11.33;5.63;;;;;;;;;;4995701;28;20033;-83
2022/04/01 11:59:10;;;;;;;14.60;6.90;;;;;;;;;;4993911;28;20026;-83
2022/04/01 12:01:54;;;;;;;14.60;7.10;;;;;;;;;;4998717;28;20041;-83
2022/04/01 12:04:26;;;;;;;14.43;7.13;;;;;;;;;;5009752;28;20019;-83
2022/04/01 12:09:35;;;;;;;13.57;6.40;;;;;;;;;;5005653;28;20061;-83
2022/04/01 12:12:01;;;;;;;16.83;7.27;;;;;;;;;;5009604;28;20456;-83
2022/04/01 12:14:27;;;;;;;13.77;7.30;;;;;;;;;;4993659;28;20023;-83
2022/04/01 12:16:53;;;;;;;16.80;7.17;;;;;;;;;;5010364;28;20033;-83
2022/04/01 12:19:22;;;;;;;14.87;7.40;;;;;;;;;;5006410;28;20022;-83
2022/04/01 12:21:51;;;;;;;13.50;6.07;;;;;;;;;;5014509;28;20419;-82
2022/04/01 12:24:17;;;;;;;11.60;4.80;;;;;;;;;;5012492;28;20712;-84
2022/04/01 12:26:44;;;;;;;9.47;5.43;;;;;;;;;;5009551;28;20049;-84
2022/04/01 12:29:19;;;;;;;8.93;5.43;;;;;;;;;;5028860;28;20402;-84
2022/04/01 12:31:49;;;;;;;12.60;6.27;;;;;;;;;;5012861;28;20028;-83
2022/04/01 12:34:14;;;;;;;10.67;5.27;;;;;;;;;;5012549;28;20022;-83
2022/04/01 12:36:39;;;;;;;12.33;6.23;;;;;;;;;;4994977;28;20037;-84
2022/04/01 12:39:06;;;;;;;9.37;4.47;;;;;;;;;;5009109;28;20054;-84
2022/04/01 12:41:31;;;;;;;10.03;4.30;;;;;;;;;;4992906;28;20023;-84
2022/04/01 12:43:59;;;;;;;13.03;5.87;;;;;;;;;;5009026;28;20081;-83
2022/04/01 12:46:31;;;;;;;11.40;5.87;;;;;;;;;;4999196;28;20494;-84
2022/04/01 12:48:58;;;;;;;13.00;5.83;;;;;;;;;;5008888;28;20093;-83
2022/04/01 12:51:25;;;;;;;11.77;5.47;;;;;;;;;;4994264;28;20061;-83
2022/04/01 12:54:10;;;;;;;12.17;5.60;;;;;;;;;;4992306;28;20109;-83
2022/04/01 12:56:37;;;;;;;9.67;5.07;;;;;;;;;;4991633;28;20042;-82
2022/04/01 12:59:07;;;;;;;10.53;6.03;;;;;;;;;;4993520;28;20081;-83
2022/04/01 13:01:33;;;;;;;10.35;5.25;;;;;;;;;;4992498;28;20361;-83
2022/04/01 13:03:59;;;;;;;9.63;4.87;;;;;;;;;;4991994;28;20105;-83
2022/04/01 13:06:25;;;;;;;9.63;5.17;;;;;;;;;;5018692;28;20105;-85
2022/04/01 13:08:58;;;;;;;10.13;4.50;;;;;;;;;;5009084;28;20487;-84
2022/04/01 13:11:32;;;;;;;12.07;5.53;;;;;;;;;;4992764;28;20373;-84
2022/04/01 13:13:57;;;;;;;9.30;4.83;;;;;;;;;;4996000;28;20068;-83
2022/04/01 13:16:23;;;;;;;11.30;5.07;;;;;;;;;;5011500;28;20454;-84
2022/04/01 13:18:48;;;;;;;10.93;5.80;;;;;;;;;;5008323;28;20026;-83
2022/04/01 13:21:16;;;;;;;12.73;5.43;;;;;;;;;;4993670;28;20022;-83
2022/04/01 13:23:42;;;;;;;11.23;5.27;;;;;;;;;;5008925;28;20022;-83
2022/04/01 13:26:07;;;;;;;12.37;5.07;;;;;;;;;;4999185;28;20049;-83
2022/04/01 13:28:32;;;;;;;10.93;5.03;;;;;;;;;;4993343;28;20285;-83
2022/04/01 13:30:58;;;;;;;8.03;4.93;;;;;;;;;;4992277;28;20110;-85
2022/04/01 13:33:23;;;;;;;8.97;4.73;;;;;;;;;;4992187;28;20467;-83
2022/04/01 13:35:50;;;;;;;12.97;5.57;;;;;;;;;;4992890;28;20391;-83
2022/04/01 13:38:15;;;;;;;14.00;4.60;;;;;;;;;;4992280;28;20022;-83
2022/04/01 13:40:40;;;;;;;7.73;3.97;;;;;;;;;;5006773;28;20383;-83
2022/04/01 13:43:06;;;;;;;11.20;5.27;;;;;;;;;;5008258;28;20081;-83
2022/04/01 13:45:33;;;;;;;13.97;6.13;;;;;;;;;;4994662;28;20331;-83
2022/04/01 13:47:58;;;;;;;10.83;4.67;;;;;;;;;;5010622;28;20491;-83
2022/04/01 13:50:24;;;;;;;12.13;5.80;;;;;;;;;;5001496;28;20113;-83
2022/04/01 13:52:50;;;;;;;8.23;4.53;;;;;;;;;;5011254;28;20022;-83
2022/04/01 13:55:15;;;;;;;10.27;4.77;;;;;;;;;;5000519;28;20022;-83
2022/04/01 13:57:40;;;;;;;8.27;4.37;;;;;;;;;;4991915;28;20022;-83
2022/04/01 14:00:06;;;;;;;10.13;5.60;;;;;;;;;;4991558;28;20014;-83
2022/04/01 14:02:31;;;;;;;5.07;3.57;;;;;;;;;;4995298;28;20132;-84
2022/04/01 14:04:56;;;;;;;9.87;4.83;;;;;;;;;;5012868;28;20386;-83
2022/04/01 14:07:21;;;;;;;8.50;5.17;;;;;;;;;;5005233;28;20030;-83
2022/04/01 14:09:46;;;;;;;11.57;4.20;;;;;;;;;;4991704;28;20018;-83
2022/04/01 14:12:13;;;;;;;9.30;4.77;;;;;;;;;;5008176;28;20072;-82
2022/04/01 14:14:38;;;;;;;8.23;3.77;;;;;;;;;;5008541;28;20455;-83
2022/04/01 14:17:04;;;;;;;8.03;4.80;;;;;;;;;;4992381;28;20060;-83
2022/04/01 14:19:29;;;;;;;8.23;4.73;;;;;;;;;;4996607;28;20080;-83
2022/04/01 14:21:55;;;;;;;11.00;5.67;;;;;;;;;;5011949;28;20014;-83
2022/04/01 14:24:20;;;;;;;10.13;5.30;;;;;;;;;;5012215;28;20442;-82
2022/04/01 14:26:45;;;;;;;11.77;4.27;;;;;;;;;;5012031;28;20378;-82
2022/04/01 14:31:57;;;;;;;10.77;5.30;;;;;;;;;;5012461;28;20447;-82
2022/04/01 14:34:26;;;;;;;8.37;4.30;;;;;;;;;;4998813;28;20022;-82
2022/04/01 14:36:51;;;;;;;7.77;4.33;;;;;;;;;;5002319;28;20042;-83
2022/04/01 14:39:16;;;;;;;8.20;5.10;;;;;;;;;;5027336;28;20109;-82
2022/04/01 14:41:44;;;;;;;10.17;4.80;;;;;;;;;;5027538;28;20013;-82
2022/04/01 14:44:09;;;;;;;8.47;4.40;;;;;;;;;;5029683;28;20079;-82
2022/04/01 14:46:36;;;;;;;8.57;4.77;;;;;;;;;;5019574;28;20038;-83
2022/04/01 14:49:03;;;;;;;8.10;4.60;;;;;;;;;;4990468;28;20108;-82